createdAt,value
2022-11-26T00:02:15.927Z,3.43
2022-11-26T00:04:45.314Z,3.87
2022-11-26T00:07:17.250Z,4.77
2022-11-26T00:09:45.722Z,3.17
2022-11-26T00:12:18.313Z,3.50
2022-11-26T00:14:47.511Z,2.60
2022-11-26T00:17:16.555Z,4.23
2022-11-26T00:19:47.073Z,3.80
2022-11-26T00:22:24.430Z,4.43
2022-11-26T00:24:52.747Z,2.77
2022-11-26T00:27:21.166Z,3.43
2022-11-26T00:29:49.011Z,4.03
2022-11-26T00:32:19.284Z,3.73
2022-11-26T00:34:48.766Z,3.23
2022-11-26T00:37:21.097Z,3.60
2022-11-26T00:39:49.586Z,3.70
2022-11-26T00:42:18.123Z,3.70
2022-11-26T00:44:46.254Z,3.80
2022-11-26T00:47:14.138Z,4.73
2022-11-26T00:49:42.015Z,4.50
2022-11-26T00:52:25.625Z,4.30
2022-11-26T00:54:53.564Z,5.97
2022-11-26T00:57:21.474Z,5.90
2022-11-26T00:59:49.543Z,5.13
2022-11-26T01:02:17.694Z,5.10
2022-11-26T01:04:45.687Z,6.30
2022-11-26T01:07:15.146Z,6.80
2022-11-26T01:09:45.400Z,6.10
2022-11-26T01:12:14.797Z,6.77
2022-11-26T01:14:42.853Z,7.37
2022-11-26T01:17:13.216Z,5.60
2022-11-26T01:19:41.258Z,6.40
2022-11-26T01:22:20.460Z,6.00
2022-11-26T01:24:48.522Z,5.70
2022-11-26T01:27:16.623Z,10.03
2022-11-26T01:29:44.541Z,7.87
2022-11-26T01:32:12.982Z,7.43
2022-11-26T01:34:40.968Z,7.10
2022-11-26T01:37:13.941Z,7.63
2022-11-26T01:39:43.274Z,6.33
2022-11-26T01:42:26.331Z,4.47
2022-11-26T01:44:54.496Z,5.07
2022-11-26T01:47:28.086Z,4.47
2022-11-26T01:50:47.499Z,5.53
2022-11-26T01:53:20.534Z,7.93
2022-11-26T01:55:54.291Z,7.17
2022-11-26T01:58:28.578Z,7.30
2022-11-26T02:00:56.967Z,7.10
2022-11-26T02:03:25.794Z,7.83
2022-11-26T02:05:59.791Z,6.37
2022-11-26T02:08:31.239Z,6.13
2022-11-26T02:11:00.500Z,6.00
2022-11-26T02:13:28.443Z,7.00
2022-11-26T02:16:04.860Z,5.63
2022-11-26T02:18:39.035Z,5.90
2022-11-26T02:21:11.120Z,5.63
2022-11-26T02:24:06.410Z,6.30
2022-11-26T02:27:01.619Z,5.50
2022-11-26T02:29:47.081Z,5.37
2022-11-26T02:32:21.997Z,5.23
2022-11-26T02:34:56.360Z,5.67
2022-11-26T02:37:29.023Z,6.43
2022-11-26T02:39:58.546Z,7.53
2022-11-26T02:42:28.155Z,8.20
2022-11-26T02:44:58.744Z,6.50
2022-11-26T02:47:29.815Z,5.77
2022-11-26T02:50:01.435Z,5.33
2022-11-26T02:52:30.831Z,7.00
2022-11-26T02:54:59.589Z,6.73
2022-11-26T02:57:31.403Z,5.33
2022-11-26T02:59:59.784Z,5.60
2022-11-26T03:02:35.384Z,6.80
2022-11-26T03:05:04.619Z,7.20
2022-11-26T03:07:35.321Z,7.17
2022-11-26T03:10:03.865Z,7.33
2022-11-26T03:12:31.764Z,7.17
2022-11-26T03:14:59.693Z,6.17
2022-11-26T03:17:28.977Z,7.80
2022-11-26T03:19:56.873Z,7.37
2022-11-26T03:22:25.146Z,5.83
2022-11-26T03:24:53.058Z,7.50
2022-11-26T03:27:20.960Z,6.57
2022-11-26T03:29:48.891Z,6.87
2022-11-26T03:32:16.904Z,6.37
2022-11-26T03:34:46.168Z,6.30
2022-11-26T03:37:14.787Z,6.93
2022-11-26T03:39:42.934Z,6.60
2022-11-26T03:42:11.002Z,5.80
2022-11-26T03:44:39.441Z,6.00
2022-11-26T03:47:07.544Z,7.23
2022-11-26T03:49:35.463Z,8.07
2022-11-26T03:52:04.811Z,6.63
2022-11-26T03:54:32.739Z,5.67
2022-11-26T03:57:00.741Z,5.80
2022-11-26T03:59:28.808Z,6.70
2022-11-26T04:01:58.207Z,6.07
2022-11-26T04:04:26.166Z,6.83
2022-11-26T04:06:54.099Z,6.27
2022-11-26T04:09:23.502Z,5.63
2022-11-26T04:11:51.530Z,6.77
2022-11-26T04:14:19.795Z,10.33
2022-11-26T04:16:47.897Z,7.07
2022-11-26T04:19:15.825Z,6.47
2022-11-26T04:21:43.690Z,7.17
2022-11-26T04:24:11.613Z,5.77
2022-11-26T04:26:40.880Z,7.00
2022-11-26T04:29:08.807Z,6.17
2022-11-26T04:31:36.757Z,6.57
2022-11-26T04:34:04.844Z,6.63
2022-11-26T04:36:32.898Z,10.47
2022-11-26T04:39:00.938Z,6.20
2022-11-26T04:41:28.891Z,7.20
2022-11-26T04:43:58.257Z,6.60
2022-11-26T04:46:26.239Z,6.63
2022-11-26T04:48:54.132Z,6.27
2022-11-26T04:51:22.094Z,8.23
2022-11-26T04:53:52.321Z,6.80
2022-11-26T04:56:22.555Z,6.73
2022-11-26T04:58:50.452Z,6.47
2022-11-26T05:01:19.794Z,6.13
2022-11-26T05:03:47.824Z,7.00
2022-11-26T05:06:16.192Z,6.67
2022-11-26T05:08:44.192Z,7.27
2022-11-26T05:11:12.120Z,7.17
2022-11-26T05:13:39.974Z,6.77
2022-11-26T05:16:08.509Z,6.43
2022-11-26T05:18:37.941Z,7.83
2022-11-26T05:21:06.392Z,9.10
2022-11-26T05:23:34.492Z,8.17
2022-11-26T05:26:02.466Z,7.37
2022-11-26T05:28:30.380Z,8.77
2022-11-26T05:31:02.748Z,9.13
2022-11-26T05:33:31.050Z,6.67
2022-11-26T05:36:00.466Z,6.77
2022-11-26T05:38:28.755Z,6.83
2022-11-26T05:40:56.828Z,6.83
2022-11-26T05:43:24.707Z,7.07
2022-11-26T05:45:52.744Z,6.50
2022-11-26T05:48:20.933Z,8.47
2022-11-26T05:50:54.276Z,6.40
2022-11-26T05:53:23.791Z,6.30
2022-11-26T05:55:51.760Z,5.70
2022-11-26T05:58:19.714Z,6.80
2022-11-26T06:00:47.747Z,8.37
2022-11-26T06:03:20.132Z,6.57
2022-11-26T06:05:48.749Z,5.13
2022-11-26T06:08:16.643Z,6.00
2022-11-26T06:10:46.164Z,8.77
2022-11-26T06:13:14.242Z,6.03
2022-11-26T06:15:42.521Z,7.27
2022-11-26T06:18:10.516Z,6.70
2022-11-26T06:20:39.653Z,7.17
2022-11-26T06:23:07.626Z,6.73
2022-11-26T06:25:35.567Z,6.00
2022-11-26T06:28:05.075Z,8.03
2022-11-26T06:30:33.047Z,12.83
2022-11-26T06:33:01.061Z,7.27
2022-11-26T06:35:29.032Z,7.27
2022-11-26T06:37:57.122Z,7.97
2022-11-26T06:40:25.118Z,7.10
2022-11-26T06:42:54.415Z,6.87
2022-11-26T06:45:24.947Z,7.40
2022-11-26T06:47:53.502Z,6.57
2022-11-26T06:50:24.201Z,5.53
2022-11-26T06:52:53.256Z,17.13
2022-11-26T06:55:21.604Z,6.27
2022-11-26T06:57:52.503Z,6.33
2022-11-26T07:00:22.078Z,8.63
2022-11-26T07:02:51.578Z,6.93
2022-11-26T07:05:21.907Z,6.30
2022-11-26T07:07:49.957Z,7.47
2022-11-26T07:10:18.269Z,6.67
2022-11-26T07:12:46.487Z,6.87
2022-11-26T07:15:15.172Z,8.03
2022-11-26T07:17:44.445Z,7.17
2022-11-26T07:20:15.386Z,6.70
2022-11-26T07:22:44.415Z,6.10
2022-11-26T07:25:13.115Z,8.47
2022-11-26T07:27:42.112Z,6.67
2022-11-26T07:30:11.453Z,7.33
2022-11-26T07:32:39.650Z,7.83
2022-11-26T07:35:09.340Z,8.30
2022-11-26T07:37:56.600Z,7.30
2022-11-26T07:40:25.791Z,8.73
2022-11-26T07:42:53.749Z,8.07
2022-11-26T07:45:21.966Z,7.37
2022-11-26T07:47:49.968Z,10.60
2022-11-26T07:50:18.166Z,7.27
2022-11-26T07:52:46.155Z,16.73
2022-11-26T07:55:15.651Z,15.63
2022-11-26T07:57:43.764Z,8.43
2022-11-26T08:00:13.763Z,14.60
2022-11-26T08:02:41.858Z,7.87
2022-11-26T08:05:10.235Z,7.77
2022-11-26T08:07:38.305Z,8.30
2022-11-26T08:10:07.675Z,8.07
2022-11-26T08:12:37.108Z,6.87
2022-11-26T08:15:06.360Z,4.80
2022-11-26T08:17:34.493Z,12.60
2022-11-26T08:20:03.182Z,14.63
2022-11-26T08:22:38.856Z,7.90
2022-11-26T08:25:08.045Z,6.00
2022-11-26T08:27:37.451Z,5.90
2022-11-26T08:30:06.906Z,5.93
2022-11-26T08:32:35.175Z,12.50
2022-11-26T08:35:03.144Z,8.23
2022-11-26T08:37:31.202Z,22.23
2022-11-26T08:40:00.370Z,8.00
2022-11-26T08:42:28.380Z,8.20
2022-11-26T08:44:59.073Z,9.17
2022-11-26T08:47:27.151Z,7.00
2022-11-26T08:49:58.515Z,9.10
2022-11-26T08:52:26.889Z,7.20
2022-11-26T08:54:54.963Z,10.10
2022-11-26T08:57:22.873Z,9.33
2022-11-26T08:59:52.082Z,8.97
2022-11-26T09:02:22.092Z,9.43
2022-11-26T09:04:50.160Z,6.50
2022-11-26T09:07:18.268Z,7.20
2022-11-26T09:09:46.587Z,7.60
2022-11-26T09:12:14.659Z,9.27
2022-11-26T09:14:43.819Z,8.73
2022-11-26T09:17:12.999Z,8.47
2022-11-26T09:19:42.994Z,11.77
2022-11-26T09:22:11.566Z,10.40
2022-11-26T09:24:42.113Z,7.60
2022-11-26T09:27:13.640Z,7.97
2022-11-26T09:29:41.999Z,7.23
2022-11-26T09:32:29.633Z,7.87
2022-11-26T09:34:59.770Z,9.00
2022-11-26T09:37:28.179Z,6.70
2022-11-26T09:39:56.244Z,23.80
2022-11-26T09:42:36.894Z,6.90
2022-11-26T09:45:14.695Z,4.77
2022-11-26T09:47:45.685Z,5.37
2022-11-26T09:50:26.569Z,7.43
2022-11-26T09:52:58.658Z,5.67
2022-11-26T09:55:29.729Z,5.97
2022-11-26T09:58:05.519Z,7.50
2022-11-26T10:00:36.318Z,8.23
2022-11-26T10:03:14.228Z,7.13
2022-11-26T10:05:54.605Z,6.97
2022-11-26T10:08:36.572Z,9.17
2022-11-26T10:11:11.856Z,7.90
2022-11-26T10:13:47.936Z,8.30
2022-11-26T10:16:25.294Z,8.73
2022-11-26T10:19:01.006Z,6.63
2022-11-26T10:21:58.230Z,6.10
2022-11-26T10:24:30.206Z,8.47
2022-11-26T10:27:01.086Z,14.23
2022-11-26T10:29:36.309Z,7.50
2022-11-26T10:32:15.078Z,17.27
2022-11-26T10:34:50.893Z,11.90
2022-11-26T10:37:21.784Z,7.78
2022-11-26T10:39:52.911Z,6.10
2022-11-26T10:42:25.622Z,7.57
2022-11-26T10:44:54.720Z,6.60
2022-11-26T10:47:28.644Z,12.50
2022-11-26T10:50:39.590Z,7.63
2022-11-26T10:53:08.599Z,13.15
2022-11-26T10:55:40.630Z,9.57
2022-11-26T10:58:16.868Z,8.20
2022-11-26T11:00:53.247Z,12.13
2022-11-26T11:03:44.621Z,7.68
2022-11-26T11:06:14.782Z,8.23
2022-11-26T11:08:44.187Z,7.88
2022-11-26T11:11:21.127Z,8.07
2022-11-26T11:13:49.725Z,8.15
2022-11-26T11:16:28.511Z,13.07
2022-11-26T11:18:59.446Z,8.30
2022-11-26T11:21:31.285Z,9.43
2022-11-26T11:24:15.993Z,9.05
2022-11-26T11:26:46.719Z,8.63
2022-11-26T11:29:34.566Z,7.78
2022-11-26T11:32:04.749Z,8.25
2022-11-26T11:34:38.578Z,10.50
2022-11-26T11:37:15.272Z,7.97
2022-11-26T11:39:45.472Z,5.93
2022-11-26T11:42:24.470Z,5.43
2022-11-26T11:44:53.817Z,7.13
2022-11-26T11:47:33.085Z,7.00
2022-11-26T11:50:18.958Z,7.95
2022-11-26T11:53:01.887Z,6.55
2022-11-26T11:55:47.424Z,8.05
2022-11-26T11:58:34.194Z,5.88
2022-11-26T12:01:09.381Z,6.97
2022-11-26T12:04:00.353Z,10.30
2022-11-26T12:06:40.032Z,4.10
2022-11-26T12:09:21.225Z,4.28
2022-11-26T12:12:00.671Z,3.88
2022-11-26T12:14:35.103Z,5.38
2022-11-26T12:17:08.324Z,5.93
2022-11-26T12:19:42.569Z,5.57
2022-11-26T12:22:19.077Z,5.95
2022-11-26T12:24:51.691Z,4.40
2022-11-26T12:27:31.816Z,4.72
2022-11-26T12:30:05.823Z,4.85
2022-11-26T12:32:41.743Z,5.50
2022-11-26T12:35:16.912Z,4.00
2022-11-26T12:37:46.738Z,4.70
2022-11-26T12:40:27.714Z,7.93
2022-11-26T12:43:02.782Z,4.13
2022-11-26T12:45:42.918Z,5.90
2022-11-26T12:48:30.138Z,4.57
2022-11-26T12:51:05.548Z,6.13
2022-11-26T12:53:40.275Z,4.03
2022-11-26T12:56:20.611Z,4.50
2022-11-26T12:58:57.929Z,4.53
2022-11-26T13:01:27.651Z,8.05
2022-11-26T13:04:14.715Z,5.25
2022-11-26T13:07:01.211Z,4.75
2022-11-26T13:09:42.932Z,5.72
2022-11-26T13:12:17.595Z,4.90
2022-11-26T13:14:54.279Z,4.53
2022-11-26T13:17:32.549Z,5.60
2022-11-26T13:20:18.685Z,4.75
2022-11-26T13:23:15.593Z,4.65
2022-11-26T13:25:58.452Z,5.60
2022-11-26T13:28:43.243Z,4.43
2022-11-26T13:31:33.564Z,5.05
2022-11-26T13:34:25.862Z,5.18
2022-11-26T13:37:20.775Z,5.13
2022-11-26T13:40:04.761Z,4.30
2022-11-26T13:43:24.655Z,4.07
2022-11-26T13:46:05.270Z,4.20
2022-11-26T13:48:42.917Z,4.82
2022-11-26T13:51:20.187Z,4.63
2022-11-26T13:53:54.111Z,5.32
2022-11-26T13:56:25.080Z,4.20
2022-11-26T13:59:01.831Z,3.42
2022-11-26T14:01:37.202Z,3.85
2022-11-26T14:04:09.121Z,3.20
2022-11-26T14:06:37.835Z,3.88
2022-11-26T14:09:08.775Z,4.47
2022-11-26T14:12:01.147Z,4.00
2022-11-26T14:14:37.648Z,3.45
2022-11-26T14:17:15.062Z,10.05
2022-11-26T14:20:12.911Z,4.30
2022-11-26T14:22:40.821Z,3.58
2022-11-26T14:25:12.167Z,3.77
2022-11-26T14:27:43.537Z,5.28
2022-11-26T14:30:28.694Z,4.73
2022-11-26T14:33:15.370Z,5.40
2022-11-26T14:35:55.427Z,5.97
2022-11-26T14:38:26.582Z,7.00
2022-11-26T14:41:00.538Z,7.43
2022-11-26T14:43:29.926Z,10.67
2022-11-26T14:46:06.315Z,12.33
2022-11-26T14:48:38.559Z,6.60
2022-11-26T14:51:09.545Z,9.00
2022-11-26T14:53:48.022Z,8.03
2022-11-26T14:56:17.776Z,8.33
2022-11-26T14:58:49.655Z,8.23
2022-11-26T15:01:23.752Z,10.80
2022-11-26T15:03:56.832Z,10.50
2022-11-26T15:06:28.872Z,7.93
2022-11-26T15:09:08.847Z,20.47
2022-11-26T15:11:39.101Z,13.83
2022-11-26T15:14:07.272Z,9.93
2022-11-26T15:16:38.141Z,7.73
2022-11-26T15:19:07.963Z,10.67
2022-11-26T15:21:37.776Z,8.90
2022-11-26T15:24:10.130Z,9.50
2022-11-26T15:26:39.840Z,8.87
2022-11-26T15:29:30.495Z,9.97
2022-11-26T15:31:58.968Z,10.53
2022-11-26T15:34:29.338Z,11.20
2022-11-26T15:36:58.807Z,11.97
2022-11-26T15:39:29.828Z,10.77
2022-11-26T15:42:02.867Z,10.87
2022-11-26T15:44:37.689Z,16.60
2022-11-26T15:47:18.122Z,9.53
2022-11-26T15:49:52.103Z,12.90
2022-11-26T15:52:25.273Z,12.00
2022-11-26T15:55:16.800Z,12.87
2022-11-26T15:57:45.729Z,10.47
2022-11-26T16:00:23.266Z,14.57
2022-11-26T16:02:52.270Z,13.07
2022-11-26T16:05:32.550Z,12.60
2022-11-26T16:08:04.052Z,13.77
2022-11-26T16:10:36.023Z,13.27
2022-11-26T16:13:29.757Z,14.60
2022-11-26T16:16:01.068Z,13.40
2022-11-26T16:18:37.845Z,14.70
2022-11-26T16:21:09.859Z,13.43
2022-11-26T16:23:42.317Z,15.00
2022-11-26T16:26:16.504Z,18.90
2022-11-26T16:28:46.181Z,13.70
2022-11-26T16:31:15.628Z,16.10
2022-11-26T16:33:44.472Z,16.80
2022-11-26T16:36:20.359Z,14.73
2022-11-26T16:38:50.834Z,17.73
2022-11-26T16:41:20.697Z,18.00
2022-11-26T16:43:49.703Z,14.47
2022-11-26T16:46:21.146Z,13.50
2022-11-26T16:48:49.850Z,15.17
2022-11-26T16:51:19.525Z,23.47
2022-11-26T16:53:49.779Z,19.97
2022-11-26T16:56:22.733Z,15.30
2022-11-26T16:58:59.336Z,12.90
2022-11-26T17:01:27.416Z,15.63
2022-11-26T17:03:55.689Z,15.47
2022-11-26T17:06:27.511Z,12.97
2022-11-26T17:08:58.571Z,14.77
2022-11-26T17:11:26.793Z,11.93
2022-11-26T17:13:55.096Z,12.97
2022-11-26T17:16:26.387Z,15.97
2022-11-26T17:18:54.727Z,13.20
2022-11-26T17:21:23.743Z,16.03
2022-11-26T17:23:52.121Z,16.47
2022-11-26T17:26:23.813Z,12.23
2022-11-26T17:28:53.041Z,12.57
2022-11-26T17:31:21.091Z,13.57
2022-11-26T17:33:50.874Z,14.43
2022-11-26T17:36:21.223Z,12.97
2022-11-26T17:38:53.345Z,11.80
2022-11-26T17:41:23.258Z,15.57
2022-11-26T17:43:51.435Z,13.43
2022-11-26T17:46:22.131Z,14.30
2022-11-26T17:48:56.917Z,13.00
2022-11-26T17:51:27.738Z,9.70
2022-11-26T17:53:56.174Z,11.23
2022-11-26T17:56:27.356Z,12.77
2022-11-26T17:58:56.028Z,11.07
2022-11-26T18:01:24.485Z,10.43
2022-11-26T18:03:53.428Z,11.87
2022-11-26T18:06:33.627Z,12.47
2022-11-26T18:09:01.980Z,11.30
2022-11-26T18:11:44.544Z,11.53
2022-11-26T18:14:13.469Z,13.17
2022-11-26T18:16:41.601Z,11.60
2022-11-26T18:19:10.818Z,13.27
2022-11-26T18:21:39.745Z,13.70
2022-11-26T18:24:09.364Z,11.03
2022-11-26T18:26:39.048Z,14.63
2022-11-26T18:29:08.878Z,12.40
2022-11-26T18:31:39.708Z,13.53
2022-11-26T18:34:08.629Z,10.73
2022-11-26T18:36:36.820Z,13.20
2022-11-26T18:39:06.206Z,14.80
2022-11-26T18:41:35.102Z,13.53
2022-11-26T18:44:04.638Z,10.30
2022-11-26T18:46:34.325Z,14.87
2022-11-26T18:49:02.485Z,11.10
2022-11-26T18:51:31.391Z,16.70
2022-11-26T18:53:59.404Z,13.00
2022-11-26T18:56:27.417Z,11.50
2022-11-26T18:58:55.443Z,10.67
2022-11-26T19:01:26.024Z,14.20
2022-11-26T19:03:56.088Z,10.70
2022-11-26T19:06:26.026Z,11.33
2022-11-26T19:08:58.823Z,10.43
2022-11-26T19:11:27.902Z,12.53
2022-11-26T19:13:59.432Z,8.83
2022-11-26T19:16:29.543Z,9.20
2022-11-26T19:19:01.892Z,12.17
2022-11-26T19:21:33.014Z,9.23
2022-11-26T19:24:03.875Z,9.13
2022-11-26T19:26:32.544Z,11.37
2022-11-26T19:29:05.032Z,10.73
2022-11-26T19:31:36.011Z,9.90
2022-11-26T19:34:07.641Z,9.60
2022-11-26T19:36:36.017Z,9.37
2022-11-26T19:39:04.901Z,8.90
2022-11-26T19:41:33.579Z,10.63
2022-11-26T19:44:04.370Z,8.87
2022-11-26T19:46:32.586Z,9.17
2022-11-26T19:49:00.628Z,11.87
2022-11-26T19:51:30.067Z,12.20
2022-11-26T19:53:58.336Z,9.53
2022-11-26T19:56:28.051Z,7.33
2022-11-26T19:58:58.829Z,7.33
2022-11-26T20:01:30.459Z,10.47
2022-11-26T20:04:00.819Z,7.63
2022-11-26T20:06:31.603Z,9.33
2022-11-26T20:09:00.607Z,8.13
2022-11-26T20:11:29.780Z,8.87
2022-11-26T20:13:58.629Z,7.07
2022-11-26T20:16:28.401Z,8.17
2022-11-26T20:18:57.321Z,8.70
2022-11-26T20:21:26.960Z,8.67
2022-11-26T20:24:00.795Z,8.23
2022-11-26T20:26:31.941Z,8.93
2022-11-26T20:29:02.692Z,9.93
2022-11-26T20:31:31.461Z,7.93
2022-11-26T20:34:02.124Z,9.60
2022-11-26T20:36:30.398Z,9.20
2022-11-26T20:39:01.911Z,10.03
2022-11-26T20:41:30.495Z,7.57
2022-11-26T20:43:59.806Z,7.60
2022-11-26T20:46:29.003Z,10.00
2022-11-26T20:48:58.867Z,9.30
2022-11-26T20:51:27.311Z,7.77
2022-11-26T20:54:01.268Z,9.33
2022-11-26T20:56:32.108Z,8.33
2022-11-26T20:59:00.667Z,7.43
2022-11-26T21:01:31.675Z,9.00
2022-11-26T21:04:01.731Z,15.47
2022-11-26T21:06:31.558Z,31.53
2022-11-26T21:09:05.019Z,17.50
2022-11-26T21:11:36.127Z,10.63
2022-11-26T21:14:04.610Z,13.60
2022-11-26T21:16:34.523Z,9.23
2022-11-26T21:19:03.520Z,14.03
2022-11-26T21:21:31.931Z,9.30
2022-11-26T21:24:04.984Z,12.40
2022-11-26T21:26:33.292Z,9.50
2022-11-26T21:29:03.599Z,8.30
2022-11-26T21:31:33.064Z,9.67
2022-11-26T21:34:03.605Z,9.33
2022-11-26T21:36:33.360Z,9.13
2022-11-26T21:39:03.384Z,9.97
2022-11-26T21:41:33.657Z,10.50
2022-11-26T21:44:04.231Z,11.73
2022-11-26T21:46:37.927Z,9.70
2022-11-26T21:49:07.830Z,8.50
2022-11-26T21:51:36.333Z,9.70
2022-11-26T21:54:08.214Z,10.03
2022-11-26T21:56:36.982Z,11.53
2022-11-26T21:59:05.645Z,9.50
2022-11-26T22:01:36.094Z,12.80
2022-11-26T22:04:07.695Z,11.87
2022-11-26T22:06:36.960Z,11.33
2022-11-26T22:09:07.975Z,11.20
2022-11-26T22:11:38.442Z,8.53
2022-11-26T22:14:07.366Z,10.93
2022-11-26T22:16:36.440Z,11.40
2022-11-26T22:19:06.097Z,9.70
2022-11-26T22:21:36.511Z,10.93
2022-11-26T22:24:07.073Z,11.10
2022-11-26T22:26:35.717Z,11.23
2022-11-26T22:29:04.764Z,13.07
2022-11-26T22:31:35.601Z,11.07
2022-11-26T22:34:06.558Z,11.50
2022-11-26T22:36:35.384Z,12.00
2022-11-26T22:39:05.388Z,10.20
2022-11-26T22:41:34.895Z,12.90
2022-11-26T22:44:03.589Z,12.30
2022-11-26T22:46:34.306Z,15.10
2022-11-26T22:49:03.759Z,10.70
2022-11-26T22:51:34.351Z,10.93
2022-11-26T22:54:21.797Z,11.93
2022-11-26T22:56:51.183Z,12.87
2022-11-26T22:59:19.158Z,12.87
2022-11-26T23:01:47.225Z,14.07
2022-11-26T23:04:15.341Z,10.60
2022-11-26T23:06:43.263Z,10.47
2022-11-26T23:09:13.469Z,13.80
2022-11-26T23:11:43.317Z,12.57
2022-11-26T23:14:13.111Z,11.53
2022-11-26T23:16:42.980Z,13.27
2022-11-26T23:19:13.789Z,11.97
2022-11-26T23:21:42.952Z,13.80
2022-11-26T23:24:11.534Z,12.97
2022-11-26T23:26:40.569Z,11.83
2022-11-26T23:29:09.647Z,11.23
2022-11-26T23:31:41.419Z,12.43
2022-11-26T23:34:10.832Z,11.43
2022-11-26T23:36:39.605Z,11.50
2022-11-26T23:39:10.621Z,14.13
2022-11-26T23:41:38.728Z,12.00
2022-11-26T23:44:06.699Z,12.47
2022-11-26T23:46:36.541Z,11.40
2022-11-26T23:49:06.265Z,11.53
2022-11-26T23:51:34.855Z,10.57
2022-11-26T23:54:02.881Z,11.90
2022-11-26T23:56:33.315Z,10.20
2022-11-26T23:59:04.024Z,10.73
